sensor_id;sensor_type;location;lat;lon;timestamp;temperature;humidity
63371;DHT22;49504;48.336;14.472;2023-02-02T00:01:49;25.80;40.80
63371;DHT22;49504;48.336;14.472;2023-02-02T00:06:51;25.70;40.90
63371;DHT22;49504;48.336;14.472;2023-02-02T00:11:53;25.70;40.80
63371;DHT22;49504;48.336;14.472;2023-02-02T00:16:56;25.80;40.80
63371;DHT22;49504;48.336;14.472;2023-02-02T00:21:58;25.80;40.90
63371;DHT22;49504;48.336;14.472;2023-02-02T00:26:59;25.70;40.80
63371;DHT22;49504;48.336;14.472;2023-02-02T00:32:02;25.70;40.80
63371;DHT22;49504;48.336;14.472;2023-02-02T00:37:03;25.80;40.80
63371;DHT22;49504;48.336;14.472;2023-02-02T00:42:04;25.80;40.90
63371;DHT22;49504;48.336;14.472;2023-02-02T00:47:07;25.70;40.90
63371;DHT22;49504;48.336;14.472;2023-02-02T00:52:08;25.70;40.80
63371;DHT22;49504;48.336;14.472;2023-02-02T00:57:11;25.70;40.70
63371;DHT22;49504;48.336;14.472;2023-02-02T01:02:14;25.70;40.70
63371;DHT22;49504;48.336;14.472;2023-02-02T01:07:15;25.70;40.80
63371;DHT22;49504;48.336;14.472;2023-02-02T01:12:16;25.70;40.90
63371;DHT22;49504;48.336;14.472;2023-02-02T01:17:19;25.70;40.90
63371;DHT22;49504;48.336;14.472;2023-02-02T01:22:20;25.70;40.80
63371;DHT22;49504;48.336;14.472;2023-02-02T01:27:21;25.70;40.90
63371;DHT22;49504;48.336;14.472;2023-02-02T01:32:23;25.70;40.90
63371;DHT22;49504;48.336;14.472;2023-02-02T01:37:24;25.70;40.90
63371;DHT22;49504;48.336;14.472;2023-02-02T01:42:55;25.70;40.30
63371;DHT22;49504;48.336;14.472;2023-02-02T01:47:58;25.70;40.90
63371;DHT22;49504;48.336;14.472;2023-02-02T01:53:01;25.70;40.90
63371;DHT22;49504;48.336;14.472;2023-02-02T01:58:06;25.70;40.80
63371;DHT22;49504;48.336;14.472;2023-02-02T02:03:12;25.60;40.70
63371;DHT22;49504;48.336;14.472;2023-02-02T02:08:17;25.60;40.60
63371;DHT22;49504;48.336;14.472;2023-02-02T02:13:23;25.70;40.70
63371;DHT22;49504;48.336;14.472;2023-02-02T02:18:31;25.60;40.70
63371;DHT22;49504;48.336;14.472;2023-02-02T02:30:09;25.60;40.20
63371;DHT22;49504;48.336;14.472;2023-02-02T02:35:30;25.60;40.80
63371;DHT22;49504;48.336;14.472;2023-02-02T02:40:36;25.70;40.90
63371;DHT22;49504;48.336;14.472;2023-02-02T02:45:39;25.70;40.90
63371;DHT22;49504;48.336;14.472;2023-02-02T02:50:42;25.60;40.70
63371;DHT22;49504;48.336;14.472;2023-02-02T02:55:48;25.70;40.60
63371;DHT22;49504;48.336;14.472;2023-02-02T03:01:04;25.60;40.60
63371;DHT22;49504;48.336;14.472;2023-02-02T03:06:15;25.60;40.60
63371;DHT22;49504;48.336;14.472;2023-02-02T03:11:21;25.60;40.50
63371;DHT22;49504;48.336;14.472;2023-02-02T03:16:22;25.60;40.50
63371;DHT22;49504;48.336;14.472;2023-02-02T03:21:25;25.60;40.70
63371;DHT22;49504;48.336;14.472;2023-02-02T03:26:26;25.60;40.70
63371;DHT22;49504;48.336;14.472;2023-02-02T03:36:46;25.60;40.10
63371;DHT22;49504;48.336;14.472;2023-02-02T03:41:47;25.60;40.70
63371;DHT22;49504;48.336;14.472;2023-02-02T03:46:52;25.60;40.70
63371;DHT22;49504;48.336;14.472;2023-02-02T03:53:59;25.60;40.00
63371;DHT22;49504;48.336;14.472;2023-02-02T03:59:00;25.60;40.50
63371;DHT22;49504;48.336;14.472;2023-02-02T04:04:01;25.60;40.60
63371;DHT22;49504;48.336;14.472;2023-02-02T04:09:03;25.60;40.50
63371;DHT22;49504;48.336;14.472;2023-02-02T04:14:04;25.60;40.60
63371;DHT22;49504;48.336;14.472;2023-02-02T04:19:05;25.60;40.70
63371;DHT22;49504;48.336;14.472;2023-02-02T04:24:09;25.70;40.70
63371;DHT22;49504;48.336;14.472;2023-02-02T04:29:11;25.60;40.60
63371;DHT22;49504;48.336;14.472;2023-02-02T04:34:13;25.60;40.70
63371;DHT22;49504;48.336;14.472;2023-02-02T04:39:15;25.60;40.70
63371;DHT22;49504;48.336;14.472;2023-02-02T04:44:16;25.60;40.70
63371;DHT22;49504;48.336;14.472;2023-02-02T04:49:17;25.70;40.50
63371;DHT22;49504;48.336;14.472;2023-02-02T04:54:20;25.60;40.70
63371;DHT22;49504;48.336;14.472;2023-02-02T04:59:21;25.60;40.70
63371;DHT22;49504;48.336;14.472;2023-02-02T05:04:22;25.60;41.40
63371;DHT22;49504;48.336;14.472;2023-02-02T05:09:25;25.60;40.60
63371;DHT22;49504;48.336;14.472;2023-02-02T05:14:26;25.60;40.70
63371;DHT22;49504;48.336;14.472;2023-02-02T05:19:27;25.60;40.60
63371;DHT22;49504;48.336;14.472;2023-02-02T05:24:30;25.60;40.60
63371;DHT22;49504;48.336;14.472;2023-02-02T05:29:31;25.60;41.30
63371;DHT22;49504;48.336;14.472;2023-02-02T05:37:09;25.60;40.10
63371;DHT22;49504;48.336;14.472;2023-02-02T05:42:10;25.60;40.50
63371;DHT22;49504;48.336;14.472;2023-02-02T05:47:11;25.60;40.50
63371;DHT22;49504;48.336;14.472;2023-02-02T05:52:21;25.60;40.50
63371;DHT22;49504;48.336;14.472;2023-02-02T06:01:45;25.50;40.10
63371;DHT22;49504;48.336;14.472;2023-02-02T06:06:46;25.50;40.70
63371;DHT22;49504;48.336;14.472;2023-02-02T06:11:47;25.50;40.50
63371;DHT22;49504;48.336;14.472;2023-02-02T06:16:50;25.50;40.70
63371;DHT22;49504;48.336;14.472;2023-02-02T06:21:51;25.50;40.80
63371;DHT22;49504;48.336;14.472;2023-02-02T06:28:16;25.50;40.20
63371;DHT22;49504;48.336;14.472;2023-02-02T06:33:17;25.40;40.80
63371;DHT22;49504;48.336;14.472;2023-02-02T06:38:18;25.50;40.80
63371;DHT22;49504;48.336;14.472;2023-02-02T06:43:20;25.40;40.80
63371;DHT22;49504;48.336;14.472;2023-02-02T06:48:21;25.50;40.80
63371;DHT22;49504;48.336;14.472;2023-02-02T06:53:22;25.40;40.80
63371;DHT22;49504;48.336;14.472;2023-02-02T06:58:25;25.40;40.70
63371;DHT22;49504;48.336;14.472;2023-02-02T07:03:27;25.50;40.80
63371;DHT22;49504;48.336;14.472;2023-02-02T07:08:28;25.40;40.70
63371;DHT22;49504;48.336;14.472;2023-02-02T07:16:04;25.40;40.20
63371;DHT22;49504;48.336;14.472;2023-02-02T07:21:06;25.40;40.80
63371;DHT22;49504;48.336;14.472;2023-02-02T07:26:08;25.40;40.70
63371;DHT22;49504;48.336;14.472;2023-02-02T07:31:16;25.40;40.80
63371;DHT22;49504;48.336;14.472;2023-02-02T07:36:20;25.40;40.80
63371;DHT22;49504;48.336;14.472;2023-02-02T07:41:23;25.40;40.80
63371;DHT22;49504;48.336;14.472;2023-02-02T07:46:26;25.40;40.80
63371;DHT22;49504;48.336;14.472;2023-02-02T07:51:27;25.40;40.80
63371;DHT22;49504;48.336;14.472;2023-02-02T07:56:28;25.40;40.80
63371;DHT22;49504;48.336;14.472;2023-02-02T08:01:30;25.40;40.90
63371;DHT22;49504;48.336;14.472;2023-02-02T08:06:33;25.40;40.80
63371;DHT22;49504;48.336;14.472;2023-02-02T08:11:36;25.40;40.80
63371;DHT22;49504;48.336;14.472;2023-02-02T08:16:39;25.40;40.90
63371;DHT22;49504;48.336;14.472;2023-02-02T08:21:40;25.40;40.90
63371;DHT22;49504;48.336;14.472;2023-02-02T08:26:41;25.40;40.90
63371;DHT22;49504;48.336;14.472;2023-02-02T08:31:44;25.40;40.80
63371;DHT22;49504;48.336;14.472;2023-02-02T08:36:45;25.40;40.80
63371;DHT22;49504;48.336;14.472;2023-02-02T08:44:25;25.40;40.30
63371;DHT22;49504;48.336;14.472;2023-02-02T08:49:27;25.40;40.90
63371;DHT22;49504;48.336;14.472;2023-02-02T08:54:28;25.40;40.90
63371;DHT22;49504;48.336;14.472;2023-02-02T08:59:30;25.30;40.80
63371;DHT22;49504;48.336;14.472;2023-02-02T09:04:31;25.30;40.80
63371;DHT22;49504;48.336;14.472;2023-02-02T09:09:58;25.40;40.30
63371;DHT22;49504;48.336;14.472;2023-02-02T09:14:59;25.30;40.80
63371;DHT22;49504;48.336;14.472;2023-02-02T09:20:00;25.40;40.90
63371;DHT22;49504;48.336;14.472;2023-02-02T09:25:03;25.30;40.80
63371;DHT22;49504;48.336;14.472;2023-02-02T09:30:06;25.40;40.80
63371;DHT22;49504;48.336;14.472;2023-02-02T09:35:08;25.30;40.80
63371;DHT22;49504;48.336;14.472;2023-02-02T09:42:33;25.30;40.20
63371;DHT22;49504;48.336;14.472;2023-02-02T09:48:04;25.30;40.70
63371;DHT22;49504;48.336;14.472;2023-02-02T09:53:17;25.40;40.80
63371;DHT22;49504;48.336;14.472;2023-02-02T09:58:31;25.40;40.80
63371;DHT22;49504;48.336;14.472;2023-02-02T10:03:38;25.30;40.70
63371;DHT22;49504;48.336;14.472;2023-02-02T10:13:14;25.30;40.20
63371;DHT22;49504;48.336;14.472;2023-02-02T10:18:18;25.30;40.70
63371;DHT22;49504;48.336;14.472;2023-02-02T10:23:26;25.30;40.70
63371;DHT22;49504;48.336;14.472;2023-02-02T10:28:42;25.30;40.70
63371;DHT22;49504;48.336;14.472;2023-02-02T10:33:56;25.30;40.70
63371;DHT22;49504;48.336;14.472;2023-02-02T10:39:09;25.30;40.70
63371;DHT22;49504;48.336;14.472;2023-02-02T10:44:29;25.30;40.70
63371;DHT22;49504;48.336;14.472;2023-02-02T10:49:36;25.30;40.60
63371;DHT22;49504;48.336;14.472;2023-02-02T10:54:50;25.30;40.70
63371;DHT22;49504;48.336;14.472;2023-02-02T11:00:03;25.30;40.60
63371;DHT22;49504;48.336;14.472;2023-02-02T11:05:13;25.30;40.60
63371;DHT22;49504;48.336;14.472;2023-02-02T11:10:19;25.30;40.60
63371;DHT22;49504;48.336;14.472;2023-02-02T11:15:27;25.30;40.60
63371;DHT22;49504;48.336;14.472;2023-02-02T11:20:31;25.30;40.60
63371;DHT22;49504;48.336;14.472;2023-02-02T11:25:36;25.30;40.60
63371;DHT22;49504;48.336;14.472;2023-02-02T11:30:39;25.30;40.60
63371;DHT22;49504;48.336;14.472;2023-02-02T11:35:52;25.30;40.60
63371;DHT22;49504;48.336;14.472;2023-02-02T11:40:59;25.30;40.60
63371;DHT22;49504;48.336;14.472;2023-02-02T11:46:04;25.30;40.60
63371;DHT22;49504;48.336;14.472;2023-02-02T11:51:08;25.30;40.60
63371;DHT22;49504;48.336;14.472;2023-02-02T11:56:23;25.30;40.60
63371;DHT22;49504;48.336;14.472;2023-02-02T12:01:27;25.30;40.60
63371;DHT22;49504;48.336;14.472;2023-02-02T12:06:34;25.30;40.60
63371;DHT22;49504;48.336;14.472;2023-02-02T12:11:44;25.30;40.60
63371;DHT22;49504;48.336;14.472;2023-02-02T12:16:58;25.30;40.60
63371;DHT22;49504;48.336;14.472;2023-02-02T12:22:16;25.30;40.60
63371;DHT22;49504;48.336;14.472;2023-02-02T12:31:52;25.30;40.10
63371;DHT22;49504;48.336;14.472;2023-02-02T12:37:04;25.30;40.60
63371;DHT22;49504;48.336;14.472;2023-02-02T12:45:13;25.30;40.10
63371;DHT22;49504;48.336;14.472;2023-02-02T12:50:38;25.30;40.60
63371;DHT22;49504;48.336;14.472;2023-02-02T12:55:49;25.30;40.60
63371;DHT22;49504;48.336;14.472;2023-02-02T13:01:14;25.30;40.90
63371;DHT22;49504;48.336;14.472;2023-02-02T13:06:47;25.40;41.00
63371;DHT22;49504;48.336;14.472;2023-02-02T13:12:06;25.30;41.10
63371;DHT22;49504;48.336;14.472;2023-02-02T13:17:11;25.40;41.10
63371;DHT22;49504;48.336;14.472;2023-02-02T13:22:17;25.40;41.10
63371;DHT22;49504;48.336;14.472;2023-02-02T13:27:21;25.50;41.20
63371;DHT22;49504;48.336;14.472;2023-02-02T13:32:27;25.50;41.20
63371;DHT22;49504;48.336;14.472;2023-02-02T13:37:34;25.50;41.30
63371;DHT22;49504;48.336;14.472;2023-02-02T13:42:45;25.50;41.20
63371;DHT22;49504;48.336;14.472;2023-02-02T13:47:54;25.50;41.20
63371;DHT22;49504;48.336;14.472;2023-02-02T13:53:17;25.50;41.80
63371;DHT22;49504;48.336;14.472;2023-02-02T13:58:41;25.50;41.20
63371;DHT22;49504;48.336;14.472;2023-02-02T14:03:54;25.50;41.10
63371;DHT22;49504;48.336;14.472;2023-02-02T14:08:58;25.60;41.50
63371;DHT22;49504;48.336;14.472;2023-02-02T14:14:08;25.60;41.60
63371;DHT22;49504;48.336;14.472;2023-02-02T14:19:16;25.50;41.50
63371;DHT22;49504;48.336;14.472;2023-02-02T14:24:41;25.60;41.50
63371;DHT22;49504;48.336;14.472;2023-02-02T14:33:26;25.60;40.90
63371;DHT22;49504;48.336;14.472;2023-02-02T14:39:00;25.60;41.50
63371;DHT22;49504;48.336;14.472;2023-02-02T14:44:04;25.60;41.50
63371;DHT22;49504;48.336;14.472;2023-02-02T14:49:17;25.60;41.50
63371;DHT22;49504;48.336;14.472;2023-02-02T14:54:26;25.60;41.50
63371;DHT22;49504;48.336;14.472;2023-02-02T14:59:34;25.60;41.50
63371;DHT22;49504;48.336;14.472;2023-02-02T15:04:38;25.60;41.50
63371;DHT22;49504;48.336;14.472;2023-02-02T15:09:39;25.60;41.40
63371;DHT22;49504;48.336;14.472;2023-02-02T15:14:48;25.60;41.50
63371;DHT22;49504;48.336;14.472;2023-02-02T15:19:54;25.60;41.50
63371;DHT22;49504;48.336;14.472;2023-02-02T15:25:03;25.60;41.50
63371;DHT22;49504;48.336;14.472;2023-02-02T15:30:12;25.60;41.30
63371;DHT22;49504;48.336;14.472;2023-02-02T15:36:41;25.60;40.70
63371;DHT22;49504;48.336;14.472;2023-02-02T15:41:44;25.60;41.30
63371;DHT22;49504;48.336;14.472;2023-02-02T15:46:46;25.60;41.20
63371;DHT22;49504;48.336;14.472;2023-02-02T15:51:51;25.60;41.20
63371;DHT22;49504;48.336;14.472;2023-02-02T16:13:27;25.60;40.60
63371;DHT22;49504;48.336;14.472;2023-02-02T16:18:29;25.80;41.10
63371;DHT22;49504;48.336;14.472;2023-02-02T16:23:33;25.80;40.90
63371;DHT22;49504;48.336;14.472;2023-02-02T16:28:37;25.80;41.00
63371;DHT22;49504;48.336;14.472;2023-02-02T16:33:41;25.80;41.10
63371;DHT22;49504;48.336;14.472;2023-02-02T16:38:43;25.80;41.20
63371;DHT22;49504;48.336;14.472;2023-02-02T16:55:16;25.80;40.60
63371;DHT22;49504;48.336;14.472;2023-02-02T17:00:19;25.90;41.30
63371;DHT22;49504;48.336;14.472;2023-02-02T17:05:23;25.90;41.10
63371;DHT22;49504;48.336;14.472;2023-02-02T17:10:30;25.90;41.00
63371;DHT22;49504;48.336;14.472;2023-02-02T17:15:33;25.90;41.20
63371;DHT22;49504;48.336;14.472;2023-02-02T17:20:37;25.90;41.30
63371;DHT22;49504;48.336;14.472;2023-02-02T17:25:42;25.90;41.50
63371;DHT22;49504;48.336;14.472;2023-02-02T17:30:46;25.90;41.50
63371;DHT22;49504;48.336;14.472;2023-02-02T17:35:48;25.80;41.40
63371;DHT22;49504;48.336;14.472;2023-02-02T17:40:52;25.90;41.40
63371;DHT22;49504;48.336;14.472;2023-02-02T17:45:54;25.80;41.20
63371;DHT22;49504;48.336;14.472;2023-02-02T17:50:55;25.80;41.30
63371;DHT22;49504;48.336;14.472;2023-02-02T17:55:57;25.80;41.70
63371;DHT22;49504;48.336;14.472;2023-02-02T18:04:24;25.80;40.90
63371;DHT22;49504;48.336;14.472;2023-02-02T18:09:25;25.80;41.80
63371;DHT22;49504;48.336;14.472;2023-02-02T18:14:26;25.80;41.90
63371;DHT22;49504;48.336;14.472;2023-02-02T18:19:29;25.80;42.00
63371;DHT22;49504;48.336;14.472;2023-02-02T18:24:30;25.80;42.00
63371;DHT22;49504;48.336;14.472;2023-02-02T18:29:31;25.80;42.10
63371;DHT22;49504;48.336;14.472;2023-02-02T18:34:34;25.70;42.10
63371;DHT22;49504;48.336;14.472;2023-02-02T18:39:35;25.70;41.80
63371;DHT22;49504;48.336;14.472;2023-02-02T18:44:36;25.80;41.90
63371;DHT22;49504;48.336;14.472;2023-02-02T18:49:39;25.70;42.00
63371;DHT22;49504;48.336;14.472;2023-02-02T18:54:40;25.70;42.10
63371;DHT22;49504;48.336;14.472;2023-02-02T18:59:42;25.70;42.20
63371;DHT22;49504;48.336;14.472;2023-02-02T19:04:45;25.70;42.20
63371;DHT22;49504;48.336;14.472;2023-02-02T19:09:46;25.70;42.20
63371;DHT22;49504;48.336;14.472;2023-02-02T19:14:47;25.70;42.10
63371;DHT22;49504;48.336;14.472;2023-02-02T19:19:49;25.70;41.90
63371;DHT22;49504;48.336;14.472;2023-02-02T19:24:50;25.70;42.20
63371;DHT22;49504;48.336;14.472;2023-02-02T19:29:54;25.70;42.20
63371;DHT22;49504;48.336;14.472;2023-02-02T19:34:59;25.60;41.90
63371;DHT22;49504;48.336;14.472;2023-02-02T19:40:14;25.70;42.10
63371;DHT22;49504;48.336;14.472;2023-02-02T19:45:23;25.70;42.00
63371;DHT22;49504;48.336;14.472;2023-02-02T19:50:36;25.60;41.80
63371;DHT22;49504;48.336;14.472;2023-02-02T19:55:39;25.60;41.90
63371;DHT22;49504;48.336;14.472;2023-02-02T20:00:40;25.60;42.00
63371;DHT22;49504;48.336;14.472;2023-02-02T20:05:44;25.70;42.00
63371;DHT22;49504;48.336;14.472;2023-02-02T20:11:38;25.60;41.30
63371;DHT22;49504;48.336;14.472;2023-02-02T20:16:41;25.60;41.90
63371;DHT22;49504;48.336;14.472;2023-02-02T20:21:45;25.60;41.90
63371;DHT22;49504;48.336;14.472;2023-02-02T20:26:50;25.60;41.90
63371;DHT22;49504;48.336;14.472;2023-02-02T20:31:54;25.60;41.90
63371;DHT22;49504;48.336;14.472;2023-02-02T20:36:59;25.60;41.90
63371;DHT22;49504;48.336;14.472;2023-02-02T20:42:03;25.60;41.90
63371;DHT22;49504;48.336;14.472;2023-02-02T20:47:05;25.60;41.60
63371;DHT22;49504;48.336;14.472;2023-02-02T20:52:08;25.60;41.80
63371;DHT22;49504;48.336;14.472;2023-02-02T20:57:12;25.60;41.90
63371;DHT22;49504;48.336;14.472;2023-02-02T21:02:15;25.60;41.90
63371;DHT22;49504;48.336;14.472;2023-02-02T21:07:18;25.60;41.90
63371;DHT22;49504;48.336;14.472;2023-02-02T21:12:22;25.60;41.80
63371;DHT22;49504;48.336;14.472;2023-02-02T21:17:23;25.60;41.90
63371;DHT22;49504;48.336;14.472;2023-02-02T21:22:24;25.60;41.80
63371;DHT22;49504;48.336;14.472;2023-02-02T21:27:27;25.60;41.80
63371;DHT22;49504;48.336;14.472;2023-02-02T21:32:28;25.60;41.80
63371;DHT22;49504;48.336;14.472;2023-02-02T21:37:29;25.60;41.80
63371;DHT22;49504;48.336;14.472;2023-02-02T21:42:32;25.60;41.80
63371;DHT22;49504;48.336;14.472;2023-02-02T21:47:34;25.60;41.70
63371;DHT22;49504;48.336;14.472;2023-02-02T21:52:36;25.60;41.70
63371;DHT22;49504;48.336;14.472;2023-02-02T21:57:39;25.60;41.70
63371;DHT22;49504;48.336;14.472;2023-02-02T22:02:42;25.60;41.70
63371;DHT22;49504;48.336;14.472;2023-02-02T22:07:48;25.60;41.70
63371;DHT22;49504;48.336;14.472;2023-02-02T22:12:52;25.60;41.70
63371;DHT22;49504;48.336;14.472;2023-02-02T22:17:53;25.60;41.70
63371;DHT22;49504;48.336;14.472;2023-02-02T22:22:54;25.60;41.70
63371;DHT22;49504;48.336;14.472;2023-02-02T22:27:57;25.60;41.70
63371;DHT22;49504;48.336;14.472;2023-02-02T22:33:02;25.60;41.60
63371;DHT22;49504;48.336;14.472;2023-02-02T22:38:04;25.60;41.60
63371;DHT22;49504;48.336;14.472;2023-02-02T22:43:07;25.60;41.60
63371;DHT22;49504;48.336;14.472;2023-02-02T22:48:08;25.60;41.60
63371;DHT22;49504;48.336;14.472;2023-02-02T22:53:09;25.50;41.60
63371;DHT22;49504;48.336;14.472;2023-02-02T22:58:12;25.60;41.60
63371;DHT22;49504;48.336;14.472;2023-02-02T23:06:52;25.60;41.10
63371;DHT22;49504;48.336;14.472;2023-02-02T23:11:53;25.60;41.60
63371;DHT22;49504;48.336;14.472;2023-02-02T23:16:54;25.50;41.50
63371;DHT22;49504;48.336;14.472;2023-02-02T23:21:56;25.60;41.30
63371;DHT22;49504;48.336;14.472;2023-02-02T23:26:57;25.60;41.50
63371;DHT22;49504;48.336;14.472;2023-02-02T23:31:58;25.60;41.50
63371;DHT22;49504;48.336;14.472;2023-02-02T23:37:01;25.60;41.50
63371;DHT22;49504;48.336;14.472;2023-02-02T23:42:02;25.60;41.50
63371;DHT22;49504;48.336;14.472;2023-02-02T23:47:04;25.60;41.50
63371;DHT22;49504;48.336;14.472;2023-02-02T23:52:07;25.60;41.40
63371;DHT22;49504;48.336;14.472;2023-02-02T23:57:08;25.60;41.40
